Tenoumaru — JM6583 — position and weather

sailwx.info

Track history (hours):
 
Tides and Currents Weather Stations Pressure Air Temp Water Temp Dewpoint Dewpoint Depression Visibility Wind Speed Wind Dir Waves Ship Positions

Tenoumaru

Last reported at 2017-Oct-18 13:01 UTC. Time now 2017-Oct-20 17:41 UTC.
Position N 34°59' E 139°25'.

Length 80 m; draft 5.6 m.

Type: Cargo ship. MMSI: 431600768.

Date/timePositionNaut miles runAvg speedWind from/ knotsBaromVisibWave heightAir tempDewpointWater temp
2017-Oct-18 13:01N 34°59' E 139°25'0 9.1
2017-Oct-18 12:58N 34°59' E 139°25'4 9.4
2017-Oct-18 12:31N 35°01' E 139°30'510.3
2017-Oct-18 12:00N 35°04' E 139°35'611.6
2017-Oct-18 11:30N 35°07' E 139°41'612.2
2017-Oct-18 11:01N 35°12' E 139°46'611.5
2017-Oct-18 10:31N 35°18' E 139°44'611.4
2017-Oct-18 10:01N 35°23' E 139°42'611.6
2017-Oct-18 09:31N 35°27' E 139°47'13 0.4
2017-Oct-17 02:19N 35°33' E 140°01'3 8.9
2017-Oct-17 01:59N 35°31' E 139°59'1 0.1
2017-Oct-16 03:31N 35°32' E 139°59'0 9.5
2017-Oct-16 03:30N 35°32' E 139°58'4 1.4
2017-Oct-16 00:33N 35°29' E 139°55'0 9.5
2017-Oct-16 00:30N 35°29' E 139°55'5 9.7
2017-Oct-16 00:00N 35°27' E 139°49'510.0
2017-Oct-15 23:31N 35°23' E 139°46'5 9.8
2017-Oct-15 23:00N 35°18' E 139°45'5 9.6
2017-Oct-15 22:31N 35°14' E 139°47'5 9.6
2017-Oct-15 22:01N 35°09' E 139°46'5 9.9
2017-Oct-15 21:31N 35°05' E 139°43'510.4
2017-Oct-15 21:00N 35°01' E 139°39'  
2017-Oct-10 23:30N 35°30' E 139°46'4 0.2
2017-Oct-10 07:23N 35°31' E 139°51'0 0.0
2017-Oct-10 03:54N 35°31' E 139°51'1 2.3
2017-Oct-10 03:30N 35°30' E 139°52'5 9.5
2017-Oct-10 03:00N 35°29' E 139°57'8 0.4
2017-Oct-09 07:36N 35°25' E 139°48'111.7
2017-Oct-09 07:30N 35°24' E 139°47'611.8
2017-Oct-09 06:59N 35°19' E 139°44'511.2
2017-Oct-09 06:30N 35°14' E 139°47'611.2
2017-Oct-09 06:00N 35°08' E 139°46'510.6
2017-Oct-09 05:30N 35°04' E 139°42'610.2
2017-Oct-09 04:57N 34°60' E 139°37'  
Track history (hours):
 
Tides and Currents Weather Stations Pressure Air Temp Water Temp Dewpoint Dewpoint Depression Visibility Wind Speed Wind Dir Waves Ship Positions

Tenoumaru

Last reported at 2017-Oct-18 13:01 UTC. Time now 2017-Oct-20 17:41 UTC.
Position N 34°59' E 139°25'.

Length 80 m; draft 5.6 m.

Type: Cargo ship. MMSI: 431600768.

Date/timePositionNaut miles runAvg speedWind from/ knotsBaromVisibWave heightAir tempDewpointWater temp
2017-Oct-18 13:01N 34°59' E 139°25'0 9.1
2017-Oct-18 12:58N 34°59' E 139°25'4 9.4
2017-Oct-18 12:31N 35°01' E 139°30'510.3
2017-Oct-18 12:00N 35°04' E 139°35'611.6
2017-Oct-18 11:30N 35°07' E 139°41'612.2
2017-Oct-18 11:01N 35°12' E 139°46'611.5
2017-Oct-18 10:31N 35°18' E 139°44'611.4
2017-Oct-18 10:01N 35°23' E 139°42'611.6
2017-Oct-18 09:31N 35°27' E 139°47'13 0.4
2017-Oct-17 02:19N 35°33' E 140°01'3 8.9
2017-Oct-17 01:59N 35°31' E 139°59'1 0.1
2017-Oct-16 03:31N 35°32' E 139°59'0 9.5
2017-Oct-16 03:30N 35°32' E 139°58'4 1.4
2017-Oct-16 00:33N 35°29' E 139°55'0 9.5
2017-Oct-16 00:30N 35°29' E 139°55'5 9.7
2017-Oct-16 00:00N 35°27' E 139°49'510.0
2017-Oct-15 23:31N 35°23' E 139°46'5 9.8
2017-Oct-15 23:00N 35°18' E 139°45'5 9.6
2017-Oct-15 22:31N 35°14' E 139°47'5 9.6
2017-Oct-15 22:01N 35°09' E 139°46'5 9.9
2017-Oct-15 21:31N 35°05' E 139°43'510.4
2017-Oct-15 21:00N 35°01' E 139°39'  
2017-Oct-10 23:30N 35°30' E 139°46'4 0.2
2017-Oct-10 07:23N 35°31' E 139°51'0 0.0
2017-Oct-10 03:54N 35°31' E 139°51'1 2.3
2017-Oct-10 03:30N 35°30' E 139°52'5 9.5
2017-Oct-10 03:00N 35°29' E 139°57'8 0.4
2017-Oct-09 07:36N 35°25' E 139°48'111.7
2017-Oct-09 07:30N 35°24' E 139°47'611.8
2017-Oct-09 06:59N 35°19' E 139°44'511.2
2017-Oct-09 06:30N 35°14' E 139°47'611.2
2017-Oct-09 06:00N 35°08' E 139°46'510.6
2017-Oct-09 05:30N 35°04' E 139°42'610.2
2017-Oct-09 04:57N 34°60' E 139°37'  

Dump ship's entire track history